Time;durP1;ratioP1;P1;durP2;ratioP2;P2;SDS_P1;SDS_P2;PMS_P1;PMS_P2;Temp;Humidity;BMP_temperature;BMP_pressure;BME280_temperature;BME280_humidity;BME280_pressure;Samples;Min_cycle;Max_cycle;Signal;HPM_P1;HPM_P2
2021/11/06 00:01:31;;;;;;;11.63;7.77;;;8.20;99.90;;;;;;5059415;28;20693;-68
2021/11/06 00:03:59;;;;;;;8.80;6.73;;;8.20;99.90;;;;;;5062463;28;20206;-68
2021/11/06 00:06:26;;;;;;;10.07;7.07;;;8.20;99.90;;;;;;5054472;28;20209;-70
2021/11/06 00:08:53;;;;;;;8.80;6.73;;;8.20;99.90;;;;;;5050627;28;20685;-68
2021/11/06 00:11:20;;;;;;;9.87;7.10;;;8.30;99.90;;;;;;5056523;28;20249;-68
2021/11/06 00:13:47;;;;;;;9.13;7.10;;;8.30;99.90;;;;;;5051510;28;20199;-69
2021/11/06 00:16:14;;;;;;;11.10;7.70;;;8.30;99.90;;;;;;5051767;28;20578;-69
2021/11/06 00:18:40;;;;;;;10.17;7.07;;;8.30;99.90;;;;;;5052826;28;20221;-69
2021/11/06 00:21:09;;;;;;;10.10;7.43;;;8.30;99.90;;;;;;5057923;28;20212;-69
2021/11/06 00:23:36;;;;;;;10.60;6.93;;;8.30;99.90;;;;;;5054619;28;20329;-69
2021/11/06 00:26:02;;;;;;;7.83;6.67;;;8.30;99.90;;;;;;5058443;28;20208;-68
2021/11/06 00:28:29;;;;;;;9.63;7.37;;;8.30;99.90;;;;;;5055427;28;20501;-69
2021/11/06 00:30:56;;;;;;;12.53;7.17;;;8.30;99.90;;;;;;5051427;28;20240;-68
2021/11/06 00:33:23;;;;;;;9.07;6.73;;;8.30;99.90;;;;;;5051983;28;20202;-69
2021/11/06 00:35:50;;;;;;;10.73;7.47;;;8.40;99.90;;;;;;5056689;28;20211;-68
2021/11/06 00:38:18;;;;;;;8.47;6.37;;;8.40;99.90;;;;;;5050536;28;20218;-69
2021/11/06 00:40:45;;;;;;;7.00;6.27;;;8.40;99.90;;;;;;5050553;28;20304;-68
2021/11/06 00:43:12;;;;;;;10.63;6.53;;;8.30;99.90;;;;;;5060712;28;20243;-68
2021/11/06 00:45:39;;;;;;;9.47;7.03;;;8.30;99.90;;;;;;5053813;28;20206;-67
2021/11/06 00:48:06;;;;;;;11.43;7.60;;;8.30;99.90;;;;;;5049655;28;20209;-67
2021/11/06 00:50:32;;;;;;;8.27;7.10;;;8.30;99.90;;;;;;5050132;28;20413;-67
2021/11/06 00:52:59;;;;;;;8.97;7.33;;;8.30;99.90;;;;;;5050029;28;20220;-69
2021/11/06 00:55:27;;;;;;;9.20;7.90;;;8.30;99.90;;;;;;5051413;28;20222;-68
2021/11/06 00:57:54;;;;;;;11.13;6.93;;;8.30;99.90;;;;;;5058345;28;20225;-67
2021/11/06 01:00:21;;;;;;;9.97;7.60;;;8.30;99.90;;;;;;5039677;28;20237;-68
2021/11/06 01:02:49;;;;;;;9.80;7.40;;;8.40;99.90;;;;;;5051445;28;20216;-68
2021/11/06 01:05:17;;;;;;;10.97;8.10;;;8.40;99.90;;;;;;5041635;28;20663;-68
2021/11/06 01:07:44;;;;;;;8.50;7.60;;;8.30;99.90;;;;;;5051054;28;20206;-69
2021/11/06 01:10:14;;;;;;;11.23;8.40;;;8.30;99.90;;;;;;5051170;28;20201;-68
2021/11/06 01:12:43;;;;;;;12.73;8.47;;;8.40;99.90;;;;;;5050604;28;20212;-69
2021/11/06 01:15:12;;;;;;;13.70;8.27;;;8.40;99.90;;;;;;5055060;28;20194;-68
2021/11/06 01:17:39;;;;;;;12.50;8.97;;;8.40;99.90;;;;;;5055713;28;20283;-68
2021/11/06 01:20:07;;;;;;;12.47;8.87;;;8.40;99.90;;;;;;5050701;28;20216;-68
2021/11/06 01:22:34;;;;;;;15.07;9.23;;;8.40;99.90;;;;;;5051171;28;20300;-68
2021/11/06 01:25:01;;;;;;;12.10;9.97;;;8.40;99.90;;;;;;5050570;28;20205;-68
2021/11/06 01:27:29;;;;;;;12.77;9.40;;;8.40;99.90;;;;;;5052833;28;20236;-68
2021/11/06 01:29:57;;;;;;;12.90;8.67;;;8.40;99.90;;;;;;5049919;28;20240;-68
2021/11/06 01:32:24;;;;;;;12.43;8.77;;;8.30;99.90;;;;;;5051731;28;20212;-69
2021/11/06 01:34:51;;;;;;;11.87;9.20;;;8.40;99.90;;;;;;5054340;28;20205;-68
2021/11/06 01:37:18;;;;;;;12.93;8.87;;;8.40;99.90;;;;;;5061877;28;20225;-68
2021/11/06 01:39:45;;;;;;;14.77;9.97;;;8.40;99.90;;;;;;5063212;28;20205;-68
2021/11/06 01:42:11;;;;;;;11.77;9.70;;;8.40;99.90;;;;;;5054089;28;20206;-68
2021/11/06 01:44:38;;;;;;;15.93;10.27;;;8.50;99.90;;;;;;5054135;28;20211;-68
2021/11/06 01:47:09;;;;;;;17.63;10.43;;;8.50;99.90;;;;;;5063295;28;20208;-67
2021/11/06 01:49:36;;;;;;;12.20;9.83;;;8.50;99.90;;;;;;5053605;28;20287;-69
2021/11/06 01:52:04;;;;;;;11.37;9.70;;;8.50;99.90;;;;;;5054412;28;20213;-68
2021/11/06 01:54:32;;;;;;;12.43;9.80;;;8.50;99.90;;;;;;5054270;28;20221;-68
2021/11/06 01:57:00;;;;;;;14.83;10.90;;;8.50;99.90;;;;;;5055233;28;20225;-68
2021/11/06 01:59:27;;;;;;;14.47;10.10;;;8.60;99.90;;;;;;5054964;28;20212;-68
2021/11/06 02:01:53;;;;;;;13.00;9.97;;;8.60;99.90;;;;;;5054880;28;20206;-68
2021/11/06 02:04:22;;;;;;;13.13;10.43;;;8.60;99.90;;;;;;5057244;28;20251;-69
2021/11/06 02:06:48;;;;;;;13.43;9.97;;;8.70;99.90;;;;;;5054091;28;20568;-69
2021/11/06 02:09:15;;;;;;;14.00;10.83;;;8.60;99.90;;;;;;5053436;28;20205;-68
2021/11/06 02:11:44;;;;;;;13.17;10.67;;;8.50;99.90;;;;;;5054087;28;20202;-68
2021/11/06 02:14:11;;;;;;;14.40;11.40;;;8.60;99.90;;;;;;5054017;28;20671;-67
2021/11/06 02:16:39;;;;;;;13.30;10.87;;;8.60;99.90;;;;;;5056110;28;20206;-68
2021/11/06 02:19:06;;;;;;;15.17;11.07;;;8.60;99.90;;;;;;5053540;28;20226;-67
2021/11/06 02:21:36;;;;;;;12.27;10.17;;;8.60;99.90;;;;;;5053451;28;20213;-68
2021/11/06 02:24:04;;;;;;;16.80;11.43;;;8.60;99.90;;;;;;5054827;28;20292;-68
2021/11/06 02:26:31;;;;;;;16.07;10.57;;;8.60;99.90;;;;;;5062096;28;20209;-69
2021/11/06 02:29:00;;;;;;;13.90;11.57;;;8.60;99.90;;;;;;5049010;28;20771;-68
2021/11/06 02:31:27;;;;;;;15.03;11.73;;;8.60;99.90;;;;;;5054196;28;20210;-68
2021/11/06 02:33:54;;;;;;;14.30;12.07;;;8.60;99.90;;;;;;5055754;28;20206;-68
2021/11/06 02:36:21;;;;;;;14.07;11.67;;;8.60;99.90;;;;;;5053818;28;20600;-68
2021/11/06 02:38:49;;;;;;;19.17;12.13;;;8.60;99.90;;;;;;5053674;28;20566;-68
2021/11/06 02:41:16;;;;;;;13.73;11.83;;;8.60;99.90;;;;;;5053257;28;20212;-67
2021/11/06 02:43:43;;;;;;;13.93;11.70;;;8.60;99.90;;;;;;5051728;28;20206;-68
2021/11/06 02:46:10;;;;;;;14.23;11.73;;;8.60;99.90;;;;;;5056966;28;20645;-68
2021/11/06 02:48:37;;;;;;;14.80;11.70;;;8.60;99.90;;;;;;5059488;28;20297;-68
2021/11/06 02:51:04;;;;;;;15.37;11.50;;;8.60;99.90;;;;;;5052354;28;20216;-69
2021/11/06 02:53:31;;;;;;;13.87;11.83;;;8.60;99.90;;;;;;5052532;28;20205;-68
2021/11/06 02:55:59;;;;;;;14.67;11.53;;;8.60;99.90;;;;;;5054974;28;20564;-68
2021/11/06 02:58:27;;;;;;;18.00;11.77;;;8.60;99.90;;;;;;5064075;28;20230;-68
2021/11/06 03:00:54;;;;;;;16.50;12.80;;;8.60;99.90;;;;;;5052454;28;20244;-68
2021/11/06 03:03:21;;;;;;;14.80;12.67;;;8.70;99.90;;;;;;5052452;28;20213;-68
2021/11/06 03:05:48;;;;;;;17.43;13.83;;;8.70;99.90;;;;;;5052661;28;20229;-68
2021/11/06 03:08:15;;;;;;;14.97;12.67;;;8.60;99.90;;;;;;5054538;28;20204;-69
2021/11/06 03:10:41;;;;;;;16.23;12.53;;;8.60;99.90;;;;;;5052005;28;20692;-67
2021/11/06 03:13:10;;;;;;;17.87;13.93;;;8.70;99.90;;;;;;5051931;28;20206;-69
2021/11/06 03:15:37;;;;;;;16.83;13.30;;;8.60;99.90;;;;;;5052668;28;20216;-68
2021/11/06 03:18:04;;;;;;;16.80;12.87;;;8.70;99.90;;;;;;5054289;28;20222;-68
2021/11/06 03:20:32;;;;;;;19.60;13.27;;;8.70;99.90;;;;;;5057609;28;20692;-68
2021/11/06 03:22:59;;;;;;;15.97;12.97;;;8.80;99.90;;;;;;5060434;28;20249;-68
2021/11/06 03:25:27;;;;;;;16.03;12.43;;;8.80;99.90;;;;;;5052212;28;20214;-68
2021/11/06 03:27:53;;;;;;;15.37;12.33;;;8.80;99.90;;;;;;5061340;28;20694;-69
2021/11/06 03:30:22;;;;;;;13.60;11.73;;;8.80;99.90;;;;;;5048333;28;20245;-68
2021/11/06 03:32:49;;;;;;;14.63;12.07;;;8.80;99.90;;;;;;5058672;28;20215;-68
2021/11/06 03:35:16;;;;;;;14.73;11.97;;;8.80;99.90;;;;;;5057071;28;20220;-69
2021/11/06 03:37:44;;;;;;;14.93;12.27;;;8.80;99.90;;;;;;5051873;28;20210;-68
2021/11/06 03:40:13;;;;;;;14.73;12.00;;;8.80;99.90;;;;;;5052351;28;20212;-68
2021/11/06 03:42:41;;;;;;;17.10;12.80;;;8.80;99.90;;;;;;5065864;28;20213;-67
2021/11/06 03:45:09;;;;;;;16.23;12.37;;;8.80;99.90;;;;;;5061167;28;20210;-67
2021/11/06 03:47:38;;;;;;;14.23;12.20;;;8.70;99.90;;;;;;5060970;28;20216;-68
2021/11/06 03:50:08;;;;;;;14.53;11.57;;;8.80;99.90;;;;;;5052464;28;20202;-69
2021/11/06 03:52:35;;;;;;;15.73;13.23;;;8.70;99.90;;;;;;5052531;28;20656;-68
2021/11/06 03:55:03;;;;;;;13.53;11.80;;;8.70;99.90;;;;;;5051840;28;20270;-69
2021/11/06 03:57:30;;;;;;;13.17;11.47;;;8.70;99.90;;;;;;5054994;28;20682;-68
2021/11/06 03:59:57;;;;;;;12.40;11.07;;;8.70;99.90;;;;;;5051370;28;20644;-69
2021/11/06 04:02:24;;;;;;;13.07;10.80;;;8.70;99.90;;;;;;5052368;28;20210;-68
2021/11/06 04:04:52;;;;;;;12.60;10.90;;;8.70;99.90;;;;;;5052106;28;20685;-68
2021/11/06 04:07:19;;;;;;;12.37;10.97;;;8.70;99.90;;;;;;5053276;28;20582;-68
2021/11/06 04:09:46;;;;;;;14.53;10.83;;;8.70;99.90;;;;;;5051789;28;20212;-68
2021/11/06 04:12:13;;;;;;;13.03;11.30;;;8.70;99.90;;;;;;5051909;28;20210;-69
2021/11/06 04:14:40;;;;;;;13.00;11.00;;;8.70;99.90;;;;;;5053357;28;20212;-68
2021/11/06 04:17:07;;;;;;;12.47;10.80;;;8.70;99.90;;;;;;5056715;28;20206;-69
2021/11/06 04:19:33;;;;;;;14.03;10.73;;;8.70;99.90;;;;;;5053768;28;20232;-69
2021/11/06 04:22:02;;;;;;;11.00;9.40;;;8.70;99.90;;;;;;5051366;28;20206;-68
2021/11/06 04:24:29;;;;;;;10.90;9.80;;;8.60;99.90;;;;;;5051724;28;20214;-68
2021/11/06 04:26:56;;;;;;;11.07;9.93;;;8.60;99.90;;;;;;5058089;28;20206;-68
2021/11/06 04:29:23;;;;;;;11.77;9.97;;;8.60;99.90;;;;;;5051135;28;20291;-68
2021/11/06 04:31:50;;;;;;;11.27;9.73;;;8.70;99.90;;;;;;5051367;28;20210;-69
2021/11/06 04:34:18;;;;;;;10.77;9.27;;;8.70;99.90;;;;;;5051712;28;20628;-68
2021/11/06 04:36:44;;;;;;;11.40;9.60;;;8.70;99.90;;;;;;5050575;28;20206;-69
2021/11/06 04:39:13;;;;;;;11.57;9.13;;;8.70;99.90;;;;;;5050822;28;20228;-68
2021/11/06 04:41:40;;;;;;;10.70;9.60;;;8.70;99.90;;;;;;5054881;28;20211;-68
2021/11/06 04:44:06;;;;;;;10.50;9.40;;;8.70;99.90;;;;;;5052988;28;20216;-68
2021/11/06 04:46:33;;;;;;;12.43;10.07;;;8.70;99.90;;;;;;5057993;28;20593;-70
2021/11/06 04:49:00;;;;;;;12.20;10.07;;;8.70;99.90;;;;;;5051111;28;20280;-69
2021/11/06 04:51:29;;;;;;;11.07;9.90;;;8.70;99.90;;;;;;5051151;28;20264;-68
2021/11/06 04:53:56;;;;;;;10.90;9.63;;;8.70;99.90;;;;;;5055451;28;20205;-68
2021/11/06 04:56:24;;;;;;;10.50;9.23;;;8.70;99.90;;;;;;5058388;28;20245;-70
2021/11/06 04:58:52;;;;;;;10.37;9.00;;;8.70;99.90;;;;;;5050948;28;20225;-68
2021/11/06 05:01:19;;;;;;;10.27;9.27;;;8.70;99.90;;;;;;5050855;28;20214;-69
2021/11/06 05:03:46;;;;;;;10.10;9.00;;;8.60;99.90;;;;;;5051097;28;20229;-68
2021/11/06 05:06:13;;;;;;;10.20;8.53;;;8.60;99.90;;;;;;5061583;28;20440;-69
2021/11/06 05:08:39;;;;;;;8.80;7.90;;;8.60;99.90;;;;;;5052673;28;20277;-69
2021/11/06 05:11:06;;;;;;;10.33;8.43;;;8.60;99.90;;;;;;5050680;28;20232;-69
2021/11/06 05:13:34;;;;;;;12.00;9.07;;;8.60;99.90;;;;;;5051385;28;20626;-68
2021/11/06 05:16:01;;;;;;;9.47;8.47;;;8.60;99.90;;;;;;5052986;28;20202;-69
2021/11/06 05:18:28;;;;;;;10.43;8.80;;;8.60;99.90;;;;;;5057968;28;20609;-68
2021/11/06 05:20:55;;;;;;;11.17;8.13;;;8.50;99.90;;;;;;5051293;28;20210;-69
2021/11/06 05:23:23;;;;;;;10.60;8.40;;;8.60;99.90;;;;;;5051063;28;20218;-68
2021/11/06 05:25:49;;;;;;;10.03;7.73;;;8.50;99.90;;;;;;5052106;28;20293;-68
2021/11/06 05:28:16;;;;;;;9.83;8.67;;;8.50;99.90;;;;;;5056691;28;20286;-68
2021/11/06 05:30:45;;;;;;;11.10;7.97;;;8.50;99.90;;;;;;5054373;28;20620;-69
2021/11/06 05:33:13;;;;;;;9.60;8.60;;;8.50;99.90;;;;;;5051265;28;20710;-68
2021/11/06 05:35:40;;;;;;;10.03;8.23;;;8.50;99.90;;;;;;5050668;28;20613;-69
2021/11/06 05:38:07;;;;;;;8.60;7.70;;;8.50;99.90;;;;;;5050301;28;20210;-68
2021/11/06 05:40:34;;;;;;;9.33;8.07;;;8.50;99.90;;;;;;5056097;28;20726;-68
2021/11/06 05:43:01;;;;;;;10.33;8.43;;;8.50;99.90;;;;;;5051195;28;20190;-68
2021/11/06 05:45:28;;;;;;;8.63;7.63;;;8.50;99.90;;;;;;5051357;28;20306;-69
2021/11/06 05:47:56;;;;;;;11.43;7.70;;;8.50;99.90;;;;;;5058867;28;20209;-68
2021/11/06 05:50:23;;;;;;;9.20;8.20;;;8.60;99.90;;;;;;5050767;28;20202;-69
2021/11/06 05:52:50;;;;;;;9.93;8.83;;;8.50;99.90;;;;;;5051329;28;20570;-69
2021/11/06 05:55:17;;;;;;;9.27;8.23;;;8.50;99.90;;;;;;5051218;28;20206;-69
2021/11/06 05:57:45;;;;;;;9.10;8.10;;;8.50;99.90;;;;;;5050365;28;20226;-68
2021/11/06 06:00:15;;;;;;;8.50;7.60;;;8.50;99.90;;;;;;5049913;28;20214;-68
2021/11/06 06:02:42;;;;;;;9.10;8.20;;;8.50;99.90;;;;;;5050214;28;20206;-69
2021/11/06 06:05:12;;;;;;;9.70;8.40;;;8.50;99.90;;;;;;5058720;28;20232;-70
2021/11/06 06:07:39;;;;;;;9.70;7.97;;;8.50;99.90;;;;;;5050685;28;20296;-70
2021/11/06 06:10:10;;;;;;;9.83;8.37;;;8.60;99.90;;;;;;5050838;28;20289;-70
2021/11/06 06:12:36;;;;;;;9.37;7.87;;;8.50;99.90;;;;;;5050197;28;20706;-69
2021/11/06 06:15:04;;;;;;;9.97;8.03;;;8.60;99.90;;;;;;5060868;28;20676;-68
2021/11/06 06:17:31;;;;;;;10.70;8.40;;;8.60;99.90;;;;;;5050513;28;20209;-68
2021/11/06 06:19:58;;;;;;;9.03;8.00;;;8.60;99.90;;;;;;5053496;28;20232;-69
2021/11/06 06:22:26;;;;;;;8.63;7.70;;;8.60;99.90;;;;;;5053985;28;20237;-68
2021/11/06 06:24:53;;;;;;;9.00;8.10;;;8.60;99.90;;;;;;5054503;28;20205;-69
2021/11/06 06:27:20;;;;;;;9.17;8.27;;;8.60;99.90;;;;;;5054647;28;20292;-69
2021/11/06 06:29:47;;;;;;;8.90;8.00;;;8.60;99.90;;;;;;5053137;28;20229;-68
2021/11/06 06:32:14;;;;;;;8.93;8.03;;;8.70;99.90;;;;;;5053409;28;20209;-69
2021/11/06 06:34:41;;;;;;;10.37;8.27;;;8.70;99.90;;;;;;5053402;28;20209;-69
2021/11/06 06:37:07;;;;;;;8.67;7.87;;;8.70;99.90;;;;;;5063395;28;21132;-69
2021/11/06 06:39:36;;;;;;;10.23;8.70;;;8.70;99.90;;;;;;5053269;28;20222;-68
2021/11/06 06:42:03;;;;;;;9.60;8.30;;;8.70;99.90;;;;;;5052630;28;20588;-67
2021/11/06 06:44:30;;;;;;;10.33;8.63;;;8.80;99.90;;;;;;5061720;28;20205;-68
2021/11/06 06:46:56;;;;;;;11.53;8.70;;;8.80;99.90;;;;;;5069479;28;20217;-67
2021/11/06 06:49:23;;;;;;;9.57;8.47;;;8.80;99.90;;;;;;5052405;28;20296;-69
2021/11/06 06:51:51;;;;;;;12.67;9.27;;;8.90;99.90;;;;;;5062318;28;20301;-70
2021/11/06 06:54:17;;;;;;;10.23;9.07;;;8.90;99.90;;;;;;5053880;28;20216;-70
2021/11/06 06:56:46;;;;;;;10.33;8.47;;;9.00;99.90;;;;;;5057619;28;20289;-71
2021/11/06 06:59:13;;;;;;;11.27;8.83;;;9.00;99.90;;;;;;5053383;28;20224;-70
2021/11/06 07:01:39;;;;;;;9.60;8.53;;;9.00;99.90;;;;;;5052497;28;20597;-69
2021/11/06 07:04:06;;;;;;;12.93;9.83;;;9.00;99.90;;;;;;5041613;28;20269;-72
2021/11/06 07:06:33;;;;;;;9.03;7.50;;;9.00;99.90;;;;;;5058069;28;20303;-72
2021/11/06 07:09:00;;;;;;;8.40;7.13;;;9.10;99.90;;;;;;5053874;28;20194;-72
2021/11/06 07:11:27;;;;;;;8.00;7.07;;;9.10;99.90;;;;;;5062279;28;20254;-71
2021/11/06 07:13:56;;;;;;;10.30;8.00;;;9.20;99.90;;;;;;5058750;28;20312;-72
2021/11/06 07:16:23;;;;;;;11.10;7.30;;;9.20;99.90;;;;;;5061425;28;20202;-71
2021/11/06 07:18:50;;;;;;;12.60;7.93;;;9.30;99.90;;;;;;5053751;28;20233;-72
2021/11/06 07:21:17;;;;;;;9.97;6.93;;;9.40;99.90;;;;;;5052963;28;20617;-70
2021/11/06 07:23:44;;;;;;;11.47;7.10;;;9.40;99.90;;;;;;5053746;28;20269;-72
2021/11/06 07:26:11;;;;;;;8.80;6.80;;;9.40;99.90;;;;;;5054825;28;20216;-71
2021/11/06 07:28:38;;;;;;;8.53;6.50;;;9.40;99.90;;;;;;5052867;28;20206;-72
2021/11/06 07:31:07;;;;;;;10.13;7.40;;;9.50;99.90;;;;;;5039460;28;20324;-70
2021/11/06 07:33:33;;;;;;;7.17;6.47;;;9.50;99.90;;;;;;5052531;28;20306;-72
2021/11/06 07:36:00;;;;;;;11.80;7.20;;;9.50;99.90;;;;;;5053759;28;20252;-69
2021/11/06 07:38:27;;;;;;;8.07;6.20;;;9.60;99.90;;;;;;5054264;28;20206;-71
2021/11/06 07:40:54;;;;;;;8.60;6.90;;;9.60;99.90;;;;;;5052245;28;20218;-69
2021/11/06 07:43:21;;;;;;;8.87;6.50;;;9.70;99.90;;;;;;5051694;28;20214;-71
2021/11/06 07:45:48;;;;;;;7.77;5.87;;;9.70;99.90;;;;;;5052634;28;20258;-69
2021/11/06 07:48:16;;;;;;;10.60;6.77;;;9.70;99.90;;;;;;5051685;28;20202;-70
2021/11/06 07:50:43;;;;;;;7.33;6.30;;;9.70;99.90;;;;;;5052078;28;20673;-71
2021/11/06 07:53:10;;;;;;;8.40;6.10;;;9.70;99.90;;;;;;5052396;28;20209;-69
2021/11/06 07:55:38;;;;;;;9.00;6.33;;;9.80;99.90;;;;;;5053089;28;20278;-70
2021/11/06 07:58:04;;;;;;;8.77;6.60;;;9.80;99.90;;;;;;5052284;28;20709;-71
2021/11/06 08:00:31;;;;;;;9.00;6.57;;;9.90;99.90;;;;;;5051504;28;20308;-69
2021/11/06 08:02:58;;;;;;;10.70;6.17;;;9.90;99.90;;;;;;5052308;28;20293;-70
2021/11/06 08:05:26;;;;;;;8.03;5.67;;;9.90;99.90;;;;;;5052775;28;20236;-70
2021/11/06 08:07:53;;;;;;;9.57;6.17;;;9.90;99.90;;;;;;5052749;28;20562;-70
2021/11/06 08:10:20;;;;;;;10.67;6.37;;;9.90;99.90;;;;;;5053823;28;20408;-70
2021/11/06 08:12:47;;;;;;;10.47;5.60;;;10.00;99.90;;;;;;5054510;28;20237;-69
2021/11/06 08:15:16;;;;;;;8.20;5.97;;;10.20;99.90;;;;;;5059031;28;20496;-71
2021/11/06 08:17:44;;;;;;;10.00;5.93;;;10.40;99.90;;;;;;5052880;28;20301;-70
2021/11/06 08:20:11;;;;;;;8.80;5.13;;;10.70;99.90;;;;;;5054457;28;20228;-70
2021/11/06 08:22:40;;;;;;;6.93;5.50;;;10.80;99.90;;;;;;5058324;28;20201;-71
2021/11/06 08:25:09;;;;;;;11.10;6.23;;;10.70;99.90;;;;;;5063684;28;20201;-71
2021/11/06 08:27:36;;;;;;;12.53;6.37;;;10.60;99.90;;;;;;5054644;28;20210;-71
2021/11/06 08:30:04;;;;;;;8.73;5.90;;;10.60;99.90;;;;;;5058375;28;20738;-71
2021/11/06 08:32:31;;;;;;;10.17;5.70;;;10.50;99.90;;;;;;5039574;28;20206;-72
2021/11/06 08:34:58;;;;;;;7.70;6.50;;;10.40;99.90;;;;;;5035358;28;20727;-73
2021/11/06 08:37:25;;;;;;;7.10;6.03;;;10.40;99.90;;;;;;5050946;28;20281;-68
2021/11/06 08:39:53;;;;;;;6.80;5.40;;;10.40;99.90;;;;;;5052616;28;20222;-72
2021/11/06 08:42:20;;;;;;;8.67;6.07;;;10.30;99.90;;;;;;5054881;28;20218;-72
2021/11/06 08:44:47;;;;;;;9.07;5.80;;;10.20;99.90;;;;;;5058856;28;20197;-72
2021/11/06 08:47:14;;;;;;;9.20;6.17;;;10.20;99.90;;;;;;5056637;28;20296;-71
2021/11/06 08:49:42;;;;;;;10.17;6.33;;;10.10;99.90;;;;;;5053589;28;20284;-70
2021/11/06 08:52:09;;;;;;;7.00;5.83;;;10.10;99.90;;;;;;5057561;28;20213;-71
2021/11/06 08:54:36;;;;;;;10.37;6.23;;;10.00;99.90;;;;;;5053619;28;20595;-69
2021/11/06 08:57:06;;;;;;;7.50;6.50;;;10.00;99.90;;;;;;5036755;28;20226;-70
2021/11/06 08:59:33;;;;;;;8.20;6.00;;;9.90;99.90;;;;;;5048404;28;20655;-74
2021/11/06 09:02:00;;;;;;;8.60;6.30;;;9.80;99.90;;;;;;5055490;28;20285;-71
2021/11/06 09:04:27;;;;;;;10.13;6.27;;;9.80;99.90;;;;;;5053449;28;20240;-70
2021/11/06 09:06:54;;;;;;;8.50;6.47;;;9.80;99.90;;;;;;5043233;28;20206;-72
2021/11/06 09:09:21;;;;;;;9.10;6.90;;;9.80;99.90;;;;;;5051646;28;20265;-73
2021/11/06 09:11:51;;;;;;;9.37;7.23;;;9.70;99.90;;;;;;5049825;28;20303;-72
2021/11/06 09:14:22;;;;;;;7.83;6.43;;;9.70;99.90;;;;;;5061752;28;20202;-72
2021/11/06 09:16:49;;;;;;;9.20;7.30;;;9.70;99.90;;;;;;5054496;28;20710;-72
2021/11/06 09:19:16;;;;;;;7.83;6.80;;;9.60;99.90;;;;;;5062452;28;20206;-72
2021/11/06 09:21:44;;;;;;;8.80;6.77;;;9.60;99.90;;;;;;5060388;28;20244;-71
2021/11/06 09:24:11;;;;;;;8.43;7.13;;;9.60;99.90;;;;;;5052428;28;20217;-72
2021/11/06 09:26:42;;;;;;;8.93;7.03;;;9.60;99.90;;;;;;5053240;28;20301;-72
2021/11/06 09:29:11;;;;;;;9.93;7.83;;;9.50;99.90;;;;;;5051517;28;20273;-73
2021/11/06 09:31:39;;;;;;;12.50;7.33;;;9.50;99.90;;;;;;5061099;28;20256;-71
2021/11/06 09:34:06;;;;;;;9.10;7.63;;;9.50;99.90;;;;;;5053617;28;20209;-71
2021/11/06 09:36:33;;;;;;;10.53;8.07;;;9.50;99.90;;;;;;5052766;28;20205;-70
2021/11/06 09:39:02;;;;;;;10.23;7.47;;;9.50;99.90;;;;;;5058894;28;20202;-72
2021/11/06 09:41:29;;;;;;;9.27;7.90;;;9.60;99.90;;;;;;5052776;28;20240;-72
2021/11/06 09:43:57;;;;;;;12.57;7.50;;;9.60;99.90;;;;;;5059192;28;20229;-75
2021/11/06 09:46:24;;;;;;;8.40;6.93;;;9.60;99.90;;;;;;5059862;28;20626;-73
2021/11/06 09:48:53;;;;;;;11.03;7.67;;;9.60;99.90;;;;;;5056685;28;20301;-73
2021/11/06 09:51:21;;;;;;;10.60;7.40;;;9.50;99.90;;;;;;5053645;28;20261;-73
2021/11/06 09:53:50;;;;;;;10.00;7.17;;;9.50;99.90;;;;;;5065247;28;20240;-73
2021/11/06 09:56:20;;;;;;;9.07;7.27;;;9.50;99.90;;;;;;5059299;28;20684;-73
2021/11/06 09:58:47;;;;;;;9.40;7.20;;;9.50;99.90;;;;;;5056648;28;20289;-73
2021/11/06 10:01:15;;;;;;;11.93;8.40;;;9.50;99.90;;;;;;5064874;28;20221;-74
2021/11/06 10:03:42;;;;;;;8.27;6.93;;;9.50;99.90;;;;;;5063709;28;20230;-74
2021/11/06 10:06:18;;;;;;;12.57;8.00;;;9.50;99.90;;;;;;5058653;28;20526;-73
2021/11/06 10:08:45;;;;;;;8.47;7.23;;;9.50;99.90;;;;;;5064490;28;20202;-75
2021/11/06 10:11:14;;;;;;;9.70;7.40;;;9.50;99.90;;;;;;5056320;28;20237;-74
2021/11/06 10:13:50;;;;;;;9.27;7.30;;;9.50;99.90;;;;;;5056476;28;20316;-74
2021/11/06 10:16:29;;;;;;;8.20;6.87;;;9.50;99.90;;;;;;5061723;28;20212;-73
2021/11/06 10:19:08;;;;;;;10.50;8.07;;;9.60;99.90;;;;;;5063726;28;20212;-73
2021/11/06 10:21:38;;;;;;;11.97;8.30;;;9.60;99.90;;;;;;5054071;28;20235;-72
2021/11/06 10:24:05;;;;;;;9.97;8.43;;;9.50;99.90;;;;;;5054974;28;20768;-71
2021/11/06 10:26:32;;;;;;;10.90;8.80;;;9.50;99.90;;;;;;5056866;28;20587;-69
2021/11/06 10:29:08;;;;;;;11.73;8.43;;;9.60;99.90;;;;;;5062813;28;20205;-70
2021/11/06 10:31:40;;;;;;;12.47;8.10;;;9.60;99.90;;;;;;5054633;28;20284;-70
2021/11/06 10:34:14;;;;;;;10.40;8.50;;;9.70;99.90;;;;;;5054114;28;20284;-70
2021/11/06 10:36:42;;;;;;;10.87;8.30;;;9.70;99.90;;;;;;5054158;28;20276;-70
2021/11/06 10:39:11;;;;;;;11.87;8.03;;;9.80;99.90;;;;;;5052449;28;20212;-71
2021/11/06 10:41:40;;;;;;;11.47;9.30;;;9.70;99.90;;;;;;5054562;28;20248;-70
2021/11/06 10:44:08;;;;;;;11.83;9.87;;;9.80;99.90;;;;;;5053428;28;20217;-70
2021/11/06 10:46:35;;;;;;;9.47;8.13;;;9.80;99.90;;;;;;5053242;28;20209;-69
2021/11/06 10:49:04;;;;;;;11.10;8.13;;;9.90;99.90;;;;;;5053473;28;20726;-70
2021/11/06 10:51:31;;;;;;;10.43;7.77;;;9.80;99.90;;;;;;5053665;28;20629;-71
2021/11/06 10:54:02;;;;;;;11.07;8.70;;;9.80;99.90;;;;;;5049150;28;20224;-71
2021/11/06 10:56:31;;;;;;;11.83;8.70;;;9.80;99.90;;;;;;5052361;28;20223;-70
2021/11/06 10:59:00;;;;;;;12.30;7.90;;;9.80;99.90;;;;;;5054985;28;20731;-70
2021/11/06 11:01:29;;;;;;;12.50;8.77;;;9.80;99.90;;;;;;5052168;28;20291;-69
2021/11/06 11:04:05;;;;;;;10.30;8.73;;;9.80;99.90;;;;;;5054141;28;20250;-70
2021/11/06 11:06:42;;;;;;;10.83;8.17;;;9.80;99.90;;;;;;5051530;28;20201;-70
2021/11/06 11:09:14;;;;;;;12.70;8.90;;;9.80;99.90;;;;;;5054571;28;20269;-69
2021/11/06 11:11:41;;;;;;;11.73;8.50;;;9.80;99.90;;;;;;5055985;28;20244;-70
2021/11/06 11:14:10;;;;;;;12.93;7.73;;;9.70;99.90;;;;;;5057411;28;20198;-71
2021/11/06 11:16:39;;;;;;;10.37;8.33;;;9.70;99.90;;;;;;5050684;28;20210;-70
2021/11/06 11:19:09;;;;;;;11.90;8.40;;;9.70;99.90;;;;;;5052903;28;20210;-69
2021/11/06 11:21:40;;;;;;;13.87;8.77;;;9.70;99.90;;;;;;5053438;28;20612;-70
2021/11/06 11:24:09;;;;;;;11.83;9.00;;;9.70;99.90;;;;;;5060231;28;20204;-70
2021/11/06 11:26:39;;;;;;;12.63;9.73;;;9.70;99.90;;;;;;5060407;28;20210;-70
2021/11/06 11:29:08;;;;;;;12.13;8.57;;;9.70;99.90;;;;;;5055791;28;20543;-71
2021/11/06 11:31:36;;;;;;;14.27;9.70;;;9.70;99.90;;;;;;5059789;28;20270;-71
2021/11/06 11:34:08;;;;;;;11.87;9.13;;;9.60;99.90;;;;;;5054846;28;20538;-72
2021/11/06 11:36:35;;;;;;;12.33;10.23;;;9.70;99.90;;;;;;5053521;28;20197;-73
2021/11/06 11:39:02;;;;;;;12.27;9.03;;;9.70;99.90;;;;;;5053493;28;20214;-72
2021/11/06 11:42:20;;;;;;;10.00;8.60;;;9.70;99.90;;;;;;5052961;28;20232;-71
2021/11/06 11:45:07;;;;;;;10.20;8.40;;;9.70;99.90;;;;;;5052654;28;20308;-71
2021/11/06 11:47:41;;;;;;;12.70;8.53;;;9.70;99.90;;;;;;5048050;28;20730;-72
2021/11/06 11:50:13;;;;;;;10.20;7.73;;;9.70;99.90;;;;;;5053234;28;20225;-72
2021/11/06 11:52:43;;;;;;;10.20;8.33;;;9.70;99.90;;;;;;5054563;28;20208;-71
2021/11/06 11:55:12;;;;;;;10.80;7.80;;;9.70;99.90;;;;;;5052875;28;20414;-71
2021/11/06 11:57:42;;;;;;;9.93;8.30;;;9.70;99.90;;;;;;5053981;28;20226;-71
2021/11/06 12:00:43;;;;;;;10.60;8.43;;;9.80;99.90;;;;;;5052024;28;20732;-72
2021/11/06 12:03:11;;;;;;;10.17;7.60;;;9.80;99.90;;;;;;5048264;28;20194;-71
2021/11/06 12:05:41;;;;;;;10.67;8.10;;;9.90;99.90;;;;;;5050626;28;20284;-71
2021/11/06 12:08:31;;;;;;;10.17;7.50;;;9.90;99.90;;;;;;5047777;28;20632;-71
2021/11/06 12:11:12;;;;;;;8.77;7.57;;;9.90;99.90;;;;;;5045581;28;20600;-69
2021/11/06 12:13:40;;;;;;;10.40;7.80;;;10.00;99.90;;;;;;5049931;28;20581;-69
2021/11/06 12:16:09;;;;;;;8.33;7.03;;;10.00;99.90;;;;;;5051600;28;20214;-71
2021/11/06 12:19:00;;;;;;;9.27;7.50;;;10.00;99.90;;;;;;5050931;28;20217;-71
2021/11/06 12:21:36;;;;;;;12.20;8.03;;;10.20;99.90;;;;;;5049576;28;20229;-70
2021/11/06 12:24:27;;;;;;;7.93;7.13;;;10.30;99.90;;;;;;5051991;28;20210;-70
2021/11/06 12:26:57;;;;;;;10.73;7.37;;;10.40;99.90;;;;;;5049227;28;20260;-70
2021/11/06 12:29:34;;;;;;;9.80;7.43;;;10.40;99.90;;;;;;5049907;28;20237;-71
2021/11/06 12:32:22;;;;;;;11.23;7.83;;;10.40;99.90;;;;;;5048398;28;20220;-70
2021/11/06 12:34:52;;;;;;;12.13;7.33;;;10.40;99.90;;;;;;5046246;28;20206;-70
2021/11/06 12:37:45;;;;;;;9.77;7.63;;;10.50;99.90;;;;;;5051208;28;20644;-70
2021/11/06 12:40:31;;;;;;;8.50;6.93;;;10.50;99.90;;;;;;5048956;28;20297;-70
2021/11/06 12:43:07;;;;;;;9.93;7.70;;;10.60;99.90;;;;;;5049551;28;20198;-71
2021/11/06 12:45:36;;;;;;;12.60;7.67;;;10.60;99.90;;;;;;5051148;28;20201;-70
2021/11/06 12:48:08;;;;;;;9.27;7.50;;;10.60;99.90;;;;;;5051176;28;20234;-70
2021/11/06 12:50:35;;;;;;;8.87;6.90;;;10.60;99.90;;;;;;5051498;28;20213;-69
2021/11/06 12:53:03;;;;;;;8.33;7.07;;;10.70;99.90;;;;;;5049970;28;20206;-70
2021/11/06 12:55:30;;;;;;;8.37;7.07;;;10.70;99.90;;;;;;5049429;28;20483;-70